sensor_id;sensor_type;location;lat;lon;timestamp;temperature;humidity
52675;DHT22;38569;52.722;6.440;2023-04-01T00:02:07;9.90;99.90
52675;DHT22;38569;52.722;6.440;2023-04-01T00:04:33;9.90;99.90
52675;DHT22;38569;52.722;6.440;2023-04-01T00:06:59;9.90;99.90
52675;DHT22;38569;52.722;6.440;2023-04-01T00:09:25;10.00;99.90
52675;DHT22;38569;52.722;6.440;2023-04-01T00:11:51;10.00;99.90
52675;DHT22;38569;52.722;6.440;2023-04-01T00:14:17;9.90;99.90
52675;DHT22;38569;52.722;6.440;2023-04-01T00:16:43;9.90;99.90
52675;DHT22;38569;52.722;6.440;2023-04-01T00:19:09;9.90;99.90
52675;DHT22;38569;52.722;6.440;2023-04-01T00:21:34;9.90;99.90
52675;DHT22;38569;52.722;6.440;2023-04-01T00:24:01;9.90;99.90
52675;DHT22;38569;52.722;6.440;2023-04-01T00:26:26;9.90;99.90
52675;DHT22;38569;52.722;6.440;2023-04-01T00:28:52;9.90;99.90
52675;DHT22;38569;52.722;6.440;2023-04-01T00:31:18;9.90;99.90
52675;DHT22;38569;52.722;6.440;2023-04-01T00:33:44;9.90;99.90
52675;DHT22;38569;52.722;6.440;2023-04-01T00:36:15;9.90;99.90
52675;DHT22;38569;52.722;6.440;2023-04-01T00:38:42;9.90;99.90
52675;DHT22;38569;52.722;6.440;2023-04-01T00:41:09;10.00;99.90
52675;DHT22;38569;52.722;6.440;2023-04-01T00:43:40;9.90;99.90
52675;DHT22;38569;52.722;6.440;2023-04-01T00:46:06;9.90;99.90
52675;DHT22;38569;52.722;6.440;2023-04-01T00:48:38;9.90;99.90
52675;DHT22;38569;52.722;6.440;2023-04-01T00:51:08;9.90;99.90
52675;DHT22;38569;52.722;6.440;2023-04-01T00:53:39;9.90;99.90
52675;DHT22;38569;52.722;6.440;2023-04-01T00:56:14;9.90;99.90
52675;DHT22;38569;52.722;6.440;2023-04-01T00:58:52;9.90;99.90
52675;DHT22;38569;52.722;6.440;2023-04-01T01:01:21;9.90;99.90
52675;DHT22;38569;52.722;6.440;2023-04-01T01:03:48;9.90;99.90
52675;DHT22;38569;52.722;6.440;2023-04-01T01:09:16;9.90;99.90
52675;DHT22;38569;52.722;6.440;2023-04-01T01:11:52;9.90;99.90
52675;DHT22;38569;52.722;6.440;2023-04-01T01:16:54;9.90;99.90
52675;DHT22;38569;52.722;6.440;2023-04-01T01:33:35;10.00;99.90
52675;DHT22;38569;52.722;6.440;2023-04-01T01:36:10;10.00;99.90
52675;DHT22;38569;52.722;6.440;2023-04-01T01:38:38;10.00;99.90
52675;DHT22;38569;52.722;6.440;2023-04-01T01:41:05;10.00;99.90
52675;DHT22;38569;52.722;6.440;2023-04-01T01:43:43;10.00;99.90
52675;DHT22;38569;52.722;6.440;2023-04-01T01:46:13;10.00;99.90
52675;DHT22;38569;52.722;6.440;2023-04-01T01:48:41;10.00;99.90
52675;DHT22;38569;52.722;6.440;2023-04-01T01:51:07;10.00;99.90
52675;DHT22;38569;52.722;6.440;2023-04-01T01:53:33;10.00;99.90
52675;DHT22;38569;52.722;6.440;2023-04-01T01:55:58;9.90;99.90
52675;DHT22;38569;52.722;6.440;2023-04-01T01:58:32;10.00;99.90
52675;DHT22;38569;52.722;6.440;2023-04-01T02:01:04;10.00;99.90
52675;DHT22;38569;52.722;6.440;2023-04-01T02:03:34;10.00;99.90
52675;DHT22;38569;52.722;6.440;2023-04-01T02:06:04;10.00;99.90
52675;DHT22;38569;52.722;6.440;2023-04-01T02:08:35;10.00;99.90
52675;DHT22;38569;52.722;6.440;2023-04-01T02:11:07;10.00;99.90
52675;DHT22;38569;52.722;6.440;2023-04-01T02:16:51;10.00;99.90
52675;DHT22;38569;52.722;6.440;2023-04-01T02:19:18;10.00;99.90
52675;DHT22;38569;52.722;6.440;2023-04-01T02:21:50;10.00;99.90
52675;DHT22;38569;52.722;6.440;2023-04-01T02:24:18;10.00;99.90
52675;DHT22;38569;52.722;6.440;2023-04-01T02:26:46;10.00;99.90
52675;DHT22;38569;52.722;6.440;2023-04-01T02:29:13;10.00;99.90
52675;DHT22;38569;52.722;6.440;2023-04-01T02:31:40;10.10;99.90
52675;DHT22;38569;52.722;6.440;2023-04-01T02:34:06;10.10;99.90
52675;DHT22;38569;52.722;6.440;2023-04-01T02:36:35;10.10;99.90
52675;DHT22;38569;52.722;6.440;2023-04-01T02:39:01;10.10;99.90
52675;DHT22;38569;52.722;6.440;2023-04-01T02:41:28;10.00;99.90
52675;DHT22;38569;52.722;6.440;2023-04-01T02:43:54;10.00;99.90
52675;DHT22;38569;52.722;6.440;2023-04-01T02:46:20;10.10;99.90
52675;DHT22;38569;52.722;6.440;2023-04-01T02:48:46;10.10;99.90
52675;DHT22;38569;52.722;6.440;2023-04-01T02:51:11;10.10;99.90
52675;DHT22;38569;52.722;6.440;2023-04-01T02:53:37;10.10;99.90
52675;DHT22;38569;52.722;6.440;2023-04-01T02:56:03;10.10;99.90
52675;DHT22;38569;52.722;6.440;2023-04-01T02:58:29;10.10;99.90
52675;DHT22;38569;52.722;6.440;2023-04-01T03:00:54;10.10;99.90
52675;DHT22;38569;52.722;6.440;2023-04-01T03:03:20;10.10;99.90
52675;DHT22;38569;52.722;6.440;2023-04-01T03:05:46;10.10;99.90
52675;DHT22;38569;52.722;6.440;2023-04-01T03:08:12;10.10;99.90
52675;DHT22;38569;52.722;6.440;2023-04-01T03:10:37;10.20;99.90
52675;DHT22;38569;52.722;6.440;2023-04-01T03:13:03;10.20;99.90
52675;DHT22;38569;52.722;6.440;2023-04-01T03:15:29;10.20;99.90
52675;DHT22;38569;52.722;6.440;2023-04-01T03:17:55;10.20;99.90
52675;DHT22;38569;52.722;6.440;2023-04-01T03:20:20;10.20;99.90
52675;DHT22;38569;52.722;6.440;2023-04-01T03:22:46;10.20;99.90
52675;DHT22;38569;52.722;6.440;2023-04-01T03:25:12;10.20;99.90
52675;DHT22;38569;52.722;6.440;2023-04-01T03:27:38;10.20;99.90
52675;DHT22;38569;52.722;6.440;2023-04-01T03:30:05;10.10;99.90
52675;DHT22;38569;52.722;6.440;2023-04-01T03:32:31;10.20;99.90
52675;DHT22;38569;52.722;6.440;2023-04-01T03:34:56;10.20;99.90
52675;DHT22;38569;52.722;6.440;2023-04-01T03:37:23;10.20;99.90
52675;DHT22;38569;52.722;6.440;2023-04-01T03:39:49;10.20;99.90
52675;DHT22;38569;52.722;6.440;2023-04-01T03:42:15;10.20;99.90
52675;DHT22;38569;52.722;6.440;2023-04-01T03:44:40;10.20;99.90
52675;DHT22;38569;52.722;6.440;2023-04-01T03:47:06;10.20;99.90
52675;DHT22;38569;52.722;6.440;2023-04-01T03:49:34;10.20;99.90
52675;DHT22;38569;52.722;6.440;2023-04-01T03:52:00;10.20;99.90
52675;DHT22;38569;52.722;6.440;2023-04-01T03:54:26;10.20;99.90
52675;DHT22;38569;52.722;6.440;2023-04-01T03:56:51;10.20;99.90
52675;DHT22;38569;52.722;6.440;2023-04-01T03:59:17;10.20;99.90
52675;DHT22;38569;52.722;6.440;2023-04-01T04:01:43;10.20;99.90
52675;DHT22;38569;52.722;6.440;2023-04-01T04:04:11;10.20;99.90
52675;DHT22;38569;52.722;6.440;2023-04-01T04:06:38;10.20;99.90
52675;DHT22;38569;52.722;6.440;2023-04-01T04:09:04;10.20;99.90
52675;DHT22;38569;52.722;6.440;2023-04-01T04:11:31;10.20;99.90
52675;DHT22;38569;52.722;6.440;2023-04-01T04:13:57;10.20;99.90
52675;DHT22;38569;52.722;6.440;2023-04-01T04:16:22;10.20;99.90
52675;DHT22;38569;52.722;6.440;2023-04-01T04:18:48;10.20;99.90
52675;DHT22;38569;52.722;6.440;2023-04-01T04:21:15;10.20;99.90
52675;DHT22;38569;52.722;6.440;2023-04-01T04:23:41;10.10;99.90
52675;DHT22;38569;52.722;6.440;2023-04-01T04:26:09;10.20;99.90
52675;DHT22;38569;52.722;6.440;2023-04-01T04:28:35;10.20;99.90
52675;DHT22;38569;52.722;6.440;2023-04-01T04:31:02;10.20;99.90
52675;DHT22;38569;52.722;6.440;2023-04-01T04:33:28;10.10;99.90
52675;DHT22;38569;52.722;6.440;2023-04-01T04:35:57;10.10;99.90
52675;DHT22;38569;52.722;6.440;2023-04-01T04:38:24;10.10;99.90
52675;DHT22;38569;52.722;6.440;2023-04-01T04:40:50;10.10;99.90
52675;DHT22;38569;52.722;6.440;2023-04-01T04:43:17;10.10;99.90
52675;DHT22;38569;52.722;6.440;2023-04-01T04:45:43;10.10;99.90
52675;DHT22;38569;52.722;6.440;2023-04-01T04:48:10;10.10;99.90
52675;DHT22;38569;52.722;6.440;2023-04-01T04:50:36;10.10;99.90
52675;DHT22;38569;52.722;6.440;2023-04-01T04:53:02;10.10;99.90
52675;DHT22;38569;52.722;6.440;2023-04-01T04:55:28;10.00;99.90
52675;DHT22;38569;52.722;6.440;2023-04-01T04:57:54;10.10;99.90
52675;DHT22;38569;52.722;6.440;2023-04-01T05:00:19;10.10;99.90
52675;DHT22;38569;52.722;6.440;2023-04-01T05:02:46;10.10;99.90
52675;DHT22;38569;52.722;6.440;2023-04-01T05:05:11;10.00;99.90
52675;DHT22;38569;52.722;6.440;2023-04-01T05:07:37;10.00;99.90
52675;DHT22;38569;52.722;6.440;2023-04-01T05:10:03;10.00;99.90
52675;DHT22;38569;52.722;6.440;2023-04-01T05:12:29;10.00;99.90
52675;DHT22;38569;52.722;6.440;2023-04-01T05:14:56;10.00;99.90
52675;DHT22;38569;52.722;6.440;2023-04-01T05:17:22;10.00;99.90
52675;DHT22;38569;52.722;6.440;2023-04-01T05:19:47;10.00;99.90
52675;DHT22;38569;52.722;6.440;2023-04-01T05:22:13;10.00;99.90
52675;DHT22;38569;52.722;6.440;2023-04-01T05:24:39;10.00;99.90
52675;DHT22;38569;52.722;6.440;2023-04-01T05:27:04;9.90;99.90
52675;DHT22;38569;52.722;6.440;2023-04-01T05:29:30;9.90;99.90
52675;DHT22;38569;52.722;6.440;2023-04-01T05:31:56;9.90;99.90
52675;DHT22;38569;52.722;6.440;2023-04-01T05:34:21;9.90;99.90
52675;DHT22;38569;52.722;6.440;2023-04-01T05:36:47;9.90;99.90
52675;DHT22;38569;52.722;6.440;2023-04-01T05:39:13;10.00;99.90
52675;DHT22;38569;52.722;6.440;2023-04-01T05:41:38;10.00;99.90
52675;DHT22;38569;52.722;6.440;2023-04-01T05:44:05;10.00;99.90
52675;DHT22;38569;52.722;6.440;2023-04-01T05:46:31;9.90;99.90
52675;DHT22;38569;52.722;6.440;2023-04-01T05:48:57;9.90;99.90
52675;DHT22;38569;52.722;6.440;2023-04-01T05:51:23;10.00;99.90
52675;DHT22;38569;52.722;6.440;2023-04-01T05:53:49;10.00;99.90
52675;DHT22;38569;52.722;6.440;2023-04-01T05:56:15;9.90;99.90
52675;DHT22;38569;52.722;6.440;2023-04-01T05:58:41;9.90;99.90
52675;DHT22;38569;52.722;6.440;2023-04-01T06:01:11;10.00;99.90
52675;DHT22;38569;52.722;6.440;2023-04-01T06:03:37;10.00;99.90
52675;DHT22;38569;52.722;6.440;2023-04-01T06:06:03;9.90;99.90
52675;DHT22;38569;52.722;6.440;2023-04-01T06:08:31;9.90;99.90
52675;DHT22;38569;52.722;6.440;2023-04-01T06:16:10;10.00;99.90
52675;DHT22;38569;52.722;6.440;2023-04-01T06:37:20;10.20;99.90
52675;DHT22;38569;52.722;6.440;2023-04-01T06:40:24;10.20;99.90
52675;DHT22;38569;52.722;6.440;2023-04-01T06:43:14;10.20;99.90
52675;DHT22;38569;52.722;6.440;2023-04-01T06:48:33;10.10;99.90
52675;DHT22;38569;52.722;6.440;2023-04-01T06:54:07;10.20;99.90
52675;DHT22;38569;52.722;6.440;2023-04-01T06:56:37;10.20;99.90
52675;DHT22;38569;52.722;6.440;2023-04-01T06:59:17;10.30;99.90
52675;DHT22;38569;52.722;6.440;2023-04-01T07:01:59;10.20;99.90
52675;DHT22;38569;52.722;6.440;2023-04-01T07:04:31;10.30;99.90
52675;DHT22;38569;52.722;6.440;2023-04-01T07:07:05;10.30;99.90
52675;DHT22;38569;52.722;6.440;2023-04-01T07:09:39;10.30;99.90
52675;DHT22;38569;52.722;6.440;2023-04-01T07:15:19;10.40;99.90
52675;DHT22;38569;52.722;6.440;2023-04-01T07:17:53;10.40;99.90
52675;DHT22;38569;52.722;6.440;2023-04-01T07:20:28;10.50;99.90
52675;DHT22;38569;52.722;6.440;2023-04-01T07:22:58;10.60;99.90
52675;DHT22;38569;52.722;6.440;2023-04-01T07:25:26;10.60;99.90
52675;DHT22;38569;52.722;6.440;2023-04-01T07:27:59;10.60;99.90
52675;DHT22;38569;52.722;6.440;2023-04-01T07:30:30;10.60;99.90
52675;DHT22;38569;52.722;6.440;2023-04-01T07:35:47;10.70;99.90
52675;DHT22;38569;52.722;6.440;2023-04-01T07:44:13;10.70;99.90
52675;DHT22;38569;52.722;6.440;2023-04-01T07:50:20;10.70;99.90
52675;DHT22;38569;52.722;6.440;2023-04-01T07:52:56;10.80;99.90
52675;DHT22;38569;52.722;6.440;2023-04-01T08:01:02;10.90;99.90
52675;DHT22;38569;52.722;6.440;2023-04-01T08:06:33;10.90;99.90
52675;DHT22;38569;52.722;6.440;2023-04-01T08:09:33;10.90;99.90
52675;DHT22;38569;52.722;6.440;2023-04-01T08:14:58;10.90;99.90
52675;DHT22;38569;52.722;6.440;2023-04-01T08:17:43;11.00;99.90
52675;DHT22;38569;52.722;6.440;2023-04-01T08:20:18;10.90;99.90
52675;DHT22;38569;52.722;6.440;2023-04-01T08:22:59;10.90;99.90
52675;DHT22;38569;52.722;6.440;2023-04-01T08:25:28;10.80;99.90
52675;DHT22;38569;52.722;6.440;2023-04-01T08:28:20;10.80;99.90
52675;DHT22;38569;52.722;6.440;2023-04-01T08:31:05;10.90;99.90
52675;DHT22;38569;52.722;6.440;2023-04-01T08:33:34;11.10;99.90
52675;DHT22;38569;52.722;6.440;2023-04-01T08:36:20;11.10;99.90
52675;DHT22;38569;52.722;6.440;2023-04-01T08:54:48;11.30;99.90
52675;DHT22;38569;52.722;6.440;2023-04-01T09:02:58;11.50;99.90
52675;DHT22;38569;52.722;6.440;2023-04-01T09:11:10;11.40;99.90
52675;DHT22;38569;52.722;6.440;2023-04-01T09:16:58;11.20;99.90
52675;DHT22;38569;52.722;6.440;2023-04-01T09:22:21;11.00;99.90
52675;DHT22;38569;52.722;6.440;2023-04-01T09:25:00;11.10;99.90
52675;DHT22;38569;52.722;6.440;2023-04-01T09:44:25;11.50;99.90
52675;DHT22;38569;52.722;6.440;2023-04-01T09:50:30;11.60;99.90
52675;DHT22;38569;52.722;6.440;2023-04-01T10:00:53;11.60;99.90
52675;DHT22;38569;52.722;6.440;2023-04-01T10:09:25;11.80;99.90
52675;DHT22;38569;52.722;6.440;2023-04-01T10:50:25;11.80;99.90
52675;DHT22;38569;52.722;6.440;2023-04-01T11:35:38;12.10;99.90
52675;DHT22;38569;52.722;6.440;2023-04-01T11:41:30;12.30;99.90
52675;DHT22;38569;52.722;6.440;2023-04-01T11:44:26;12.30;99.90
52675;DHT22;38569;52.722;6.440;2023-04-01T11:49:49;11.70;99.90
52675;DHT22;38569;52.722;6.440;2023-04-01T11:59:12;10.80;99.90
52675;DHT22;38569;52.722;6.440;2023-04-01T12:04:17;10.80;99.90
52675;DHT22;38569;52.722;6.440;2023-04-01T12:07:03;10.70;99.90
52675;DHT22;38569;52.722;6.440;2023-04-01T12:21:04;10.50;99.90
52675;DHT22;38569;52.722;6.440;2023-04-01T12:48:38;10.40;99.90
52675;DHT22;38569;52.722;6.440;2023-04-01T12:51:19;10.40;99.90
52675;DHT22;38569;52.722;6.440;2023-04-01T12:54:13;10.30;99.90
52675;DHT22;38569;52.722;6.440;2023-04-01T13:08:29;10.30;99.90
52675;DHT22;38569;52.722;6.440;2023-04-01T13:11:19;10.20;99.90
52675;DHT22;38569;52.722;6.440;2023-04-01T13:16:54;10.20;99.90
52675;DHT22;38569;52.722;6.440;2023-04-01T13:24:59;10.20;99.90
52675;DHT22;38569;52.722;6.440;2023-04-01T13:27:38;10.30;99.90
52675;DHT22;38569;52.722;6.440;2023-04-01T13:30:36;10.30;99.90
52675;DHT22;38569;52.722;6.440;2023-04-01T13:44:00;10.30;99.90
52675;DHT22;38569;52.722;6.440;2023-04-01T13:46:38;10.20;99.90
52675;DHT22;38569;52.722;6.440;2023-04-01T14:00:17;10.30;99.90
52675;DHT22;38569;52.722;6.440;2023-04-01T14:02:51;10.20;99.90
52675;DHT22;38569;52.722;6.440;2023-04-01T14:08:26;10.10;99.90
52675;DHT22;38569;52.722;6.440;2023-04-01T14:22:16;9.70;99.90
52675;DHT22;38569;52.722;6.440;2023-04-01T14:25:43;9.60;99.90
52675;DHT22;38569;52.722;6.440;2023-04-01T14:48:17;9.40;99.90
52675;DHT22;38569;52.722;6.440;2023-04-01T14:50:50;9.40;99.90
52675;DHT22;38569;52.722;6.440;2023-04-01T14:53:38;9.40;99.90
52675;DHT22;38569;52.722;6.440;2023-04-01T14:56:07;9.50;99.90
52675;DHT22;38569;52.722;6.440;2023-04-01T15:07:00;9.40;99.90
52675;DHT22;38569;52.722;6.440;2023-04-01T15:15:46;9.40;99.90
52675;DHT22;38569;52.722;6.440;2023-04-01T15:21:04;9.40;99.90
52675;DHT22;38569;52.722;6.440;2023-04-01T15:26:25;9.30;99.90
52675;DHT22;38569;52.722;6.440;2023-04-01T15:31:55;9.20;99.90
52675;DHT22;38569;52.722;6.440;2023-04-01T15:40:02;9.30;99.90
52675;DHT22;38569;52.722;6.440;2023-04-01T15:48:54;9.40;99.90
52675;DHT22;38569;52.722;6.440;2023-04-01T15:59:46;9.30;99.90
52675;DHT22;38569;52.722;6.440;2023-04-01T16:05:44;9.30;99.90
52675;DHT22;38569;52.722;6.440;2023-04-01T16:08:35;9.20;99.90
52675;DHT22;38569;52.722;6.440;2023-04-01T16:11:28;9.20;99.90
52675;DHT22;38569;52.722;6.440;2023-04-01T16:14:25;9.20;99.90
52675;DHT22;38569;52.722;6.440;2023-04-01T16:19:59;9.20;99.90
52675;DHT22;38569;52.722;6.440;2023-04-01T16:22:34;9.10;99.90
52675;DHT22;38569;52.722;6.440;2023-04-01T16:28:23;8.90;99.90
52675;DHT22;38569;52.722;6.440;2023-04-01T16:31:15;8.80;99.90
52675;DHT22;38569;52.722;6.440;2023-04-01T16:33:57;8.80;99.90
52675;DHT22;38569;52.722;6.440;2023-04-01T16:42:06;8.70;99.90
52675;DHT22;38569;52.722;6.440;2023-04-01T16:47:22;8.80;99.90
52675;DHT22;38569;52.722;6.440;2023-04-01T16:50:05;8.80;99.90
52675;DHT22;38569;52.722;6.440;2023-04-01T16:55:50;8.70;99.90
52675;DHT22;38569;52.722;6.440;2023-04-01T16:58:36;8.70;99.90
52675;DHT22;38569;52.722;6.440;2023-04-01T17:01:05;8.60;99.90
52675;DHT22;38569;52.722;6.440;2023-04-01T17:03:41;8.40;99.90
52675;DHT22;38569;52.722;6.440;2023-04-01T17:11:49;8.20;99.90
52675;DHT22;38569;52.722;6.440;2023-04-01T17:20:00;8.10;99.90
52675;DHT22;38569;52.722;6.440;2023-04-01T17:22:46;8.10;99.90
52675;DHT22;38569;52.722;6.440;2023-04-01T17:27:59;8.00;99.90
52675;DHT22;38569;52.722;6.440;2023-04-01T17:36:16;8.00;99.90
52675;DHT22;38569;52.722;6.440;2023-04-01T17:42:11;8.00;99.90
52675;DHT22;38569;52.722;6.440;2023-04-01T17:58:30;7.70;99.90
52675;DHT22;38569;52.722;6.440;2023-04-01T18:01:15;7.70;99.90
52675;DHT22;38569;52.722;6.440;2023-04-01T18:04:08;7.70;99.90
52675;DHT22;38569;52.722;6.440;2023-04-01T18:23:46;7.60;99.90
52675;DHT22;38569;52.722;6.440;2023-04-01T18:26:32;7.60;99.90
52675;DHT22;38569;52.722;6.440;2023-04-01T18:29:35;7.60;99.90
52675;DHT22;38569;52.722;6.440;2023-04-01T18:32:15;7.60;99.90
52675;DHT22;38569;52.722;6.440;2023-04-01T18:34:52;7.60;99.90
52675;DHT22;38569;52.722;6.440;2023-04-01T18:37:31;7.50;99.90
52675;DHT22;38569;52.722;6.440;2023-04-01T18:46:40;7.40;99.90
52675;DHT22;38569;52.722;6.440;2023-04-01T18:49:39;7.30;99.90
52675;DHT22;38569;52.722;6.440;2023-04-01T18:52:18;7.30;99.90
52675;DHT22;38569;52.722;6.440;2023-04-01T19:01:02;7.20;99.90
52675;DHT22;38569;52.722;6.440;2023-04-01T19:03:45;7.10;99.90
52675;DHT22;38569;52.722;6.440;2023-04-01T19:06:20;7.10;99.90
52675;DHT22;38569;52.722;6.440;2023-04-01T19:08:47;7.00;99.90
52675;DHT22;38569;52.722;6.440;2023-04-01T19:11:34;7.00;99.90
52675;DHT22;38569;52.722;6.440;2023-04-01T19:14:09;6.90;99.90
52675;DHT22;38569;52.722;6.440;2023-04-01T19:16:47;6.90;99.90
52675;DHT22;38569;52.722;6.440;2023-04-01T19:19:33;6.90;99.90
52675;DHT22;38569;52.722;6.440;2023-04-01T19:25:21;6.80;99.90
52675;DHT22;38569;52.722;6.440;2023-04-01T19:27:51;6.80;99.90
52675;DHT22;38569;52.722;6.440;2023-04-01T19:30:45;6.80;99.90
52675;DHT22;38569;52.722;6.440;2023-04-01T19:58:36;6.60;99.90
52675;DHT22;38569;52.722;6.440;2023-04-01T20:01:10;6.60;99.90
52675;DHT22;38569;52.722;6.440;2023-04-01T20:03:40;6.60;99.90
52675;DHT22;38569;52.722;6.440;2023-04-01T20:07:27;6.50;99.90
52675;DHT22;38569;52.722;6.440;2023-04-01T20:12:34;6.50;99.90
52675;DHT22;38569;52.722;6.440;2023-04-01T20:15:36;6.40;99.90
52675;DHT22;38569;52.722;6.440;2023-04-01T20:18:13;6.40;99.90
52675;DHT22;38569;52.722;6.440;2023-04-01T20:20:41;6.40;99.90
52675;DHT22;38569;52.722;6.440;2023-04-01T20:23:30;6.40;99.90
52675;DHT22;38569;52.722;6.440;2023-04-01T20:26:06;6.40;99.90
52675;DHT22;38569;52.722;6.440;2023-04-01T20:29:02;6.50;99.90
52675;DHT22;38569;52.722;6.440;2023-04-01T20:31:40;6.40;99.90
52675;DHT22;38569;52.722;6.440;2023-04-01T20:34:20;6.40;99.90
52675;DHT22;38569;52.722;6.440;2023-04-01T20:45:38;6.30;99.90
52675;DHT22;38569;52.722;6.440;2023-04-01T20:51:10;6.20;99.90
52675;DHT22;38569;52.722;6.440;2023-04-01T20:53:49;6.20;99.90
52675;DHT22;38569;52.722;6.440;2023-04-01T21:07:41;6.10;99.90
52675;DHT22;38569;52.722;6.440;2023-04-01T21:13:21;6.10;99.90
52675;DHT22;38569;52.722;6.440;2023-04-01T21:22:04;6.10;99.90
52675;DHT22;38569;52.722;6.440;2023-04-01T21:44:36;6.00;99.90
52675;DHT22;38569;52.722;6.440;2023-04-01T22:06:47;5.80;99.90
52675;DHT22;38569;52.722;6.440;2023-04-01T22:09:32;5.80;99.90
52675;DHT22;38569;52.722;6.440;2023-04-01T22:18:25;5.80;99.90
52675;DHT22;38569;52.722;6.440;2023-04-01T22:21:20;5.80;99.90
52675;DHT22;38569;52.722;6.440;2023-04-01T22:29:12;5.80;99.90
52675;DHT22;38569;52.722;6.440;2023-04-01T22:50:22;5.60;99.90
52675;DHT22;38569;52.722;6.440;2023-04-01T22:53:13;5.60;99.90
52675;DHT22;38569;52.722;6.440;2023-04-01T22:55:44;5.60;99.90
52675;DHT22;38569;52.722;6.440;2023-04-01T22:58:16;5.60;99.90
52675;DHT22;38569;52.722;6.440;2023-04-01T23:00:46;5.50;99.90
52675;DHT22;38569;52.722;6.440;2023-04-01T23:05:56;5.60;99.90
52675;DHT22;38569;52.722;6.440;2023-04-01T23:11:21;5.50;99.90
52675;DHT22;38569;52.722;6.440;2023-04-01T23:13:57;5.50;99.90
52675;DHT22;38569;52.722;6.440;2023-04-01T23:16:37;5.50;99.90
52675;DHT22;38569;52.722;6.440;2023-04-01T23:27:08;5.40;99.90
52675;DHT22;38569;52.722;6.440;2023-04-01T23:29:37;5.40;99.90
52675;DHT22;38569;52.722;6.440;2023-04-01T23:32:05;5.40;99.90
52675;DHT22;38569;52.722;6.440;2023-04-01T23:34:38;5.40;99.90
52675;DHT22;38569;52.722;6.440;2023-04-01T23:37:12;5.30;99.90
52675;DHT22;38569;52.722;6.440;2023-04-01T23:39:39;5.30;99.90
52675;DHT22;38569;52.722;6.440;2023-04-01T23:42:23;5.30;99.90
52675;DHT22;38569;52.722;6.440;2023-04-01T23:44:56;5.20;99.90
52675;DHT22;38569;52.722;6.440;2023-04-01T23:47:26;5.20;99.90
52675;DHT22;38569;52.722;6.440;2023-04-01T23:49:57;5.20;99.90
52675;DHT22;38569;52.722;6.440;2023-04-01T23:52:30;5.20;99.90
52675;DHT22;38569;52.722;6.440;2023-04-01T23:54:59;5.10;99.90
52675;DHT22;38569;52.722;6.440;2023-04-01T23:57:33;5.10;99.90
